createdAt,value
2019-02-18T07:57:39.168Z,38.49
2019-02-18T08:00:10.841Z,38.45
2019-02-18T08:02:40.702Z,39.33
2019-02-18T08:05:10.381Z,39.65
2019-02-18T08:07:40.104Z,39.37
2019-02-18T08:10:12.430Z,40.10
2019-02-18T08:12:41.797Z,39.83
2019-02-18T08:15:11.796Z,39.95
2019-02-18T08:17:41.187Z,39.00
2019-02-18T08:20:11.020Z,39.11
2019-02-18T08:22:40.818Z,39.45
2019-02-18T08:25:10.541Z,40.63
2019-02-18T08:27:40.241Z,40.55
2019-02-18T08:30:13.571Z,40.03
2019-02-18T08:32:43.441Z,40.55
2019-02-18T08:35:13.134Z,40.36
2019-02-18T08:37:42.894Z,39.08
2019-02-18T08:40:21.692Z,40.35
2019-02-18T08:42:43.791Z,40.17
2019-02-18T08:45:14.143Z,39.40
2019-02-18T08:47:43.842Z,38.66
2019-02-18T08:50:13.560Z,35.81
2019-02-18T08:52:43.160Z,36.05
2019-02-18T08:55:13.550Z,36.12
2019-02-18T08:57:43.212Z,34.28
2019-02-18T09:00:15.492Z,34.33
2019-02-18T09:02:45.129Z,34.58
2019-02-18T09:05:15.052Z,33.78
2019-02-18T09:07:44.816Z,33.01
2019-02-18T09:10:14.576Z,31.42
2019-02-18T09:12:44.185Z,29.46
2019-02-18T09:15:14.450Z,28.40
2019-02-18T09:17:44.212Z,29.52
2019-02-18T09:20:14.165Z,29.08
2019-02-18T09:23:05.683Z,27.64
2019-02-18T09:25:43.555Z,27.89
2019-02-18T09:28:13.502Z,27.69
2019-02-18T09:30:45.468Z,25.68
2019-02-18T09:33:15.206Z,24.48
2019-02-18T09:35:44.758Z,25.36
2019-02-18T09:38:24.411Z,24.99
2019-02-18T09:40:49.398Z,24.11
2019-02-18T09:43:17.029Z,21.80
2019-02-18T09:45:46.576Z,22.16
2019-02-18T09:48:15.963Z,22.13
2019-02-18T09:50:45.717Z,21.80
2019-02-18T09:53:15.397Z,21.36
2019-02-18T09:55:45.034Z,19.72
2019-02-18T09:58:14.553Z,20.21
2019-02-18T10:00:43.979Z,20.04
2019-02-18T10:03:13.609Z,19.10
2019-02-18T10:05:43.334Z,19.22
2019-02-18T10:08:12.809Z,18.34
2019-02-18T10:10:42.421Z,18.34
2019-02-18T10:13:12.176Z,16.84
2019-02-18T10:15:41.965Z,17.26
2019-02-18T10:18:11.669Z,17.83
2019-02-18T10:20:41.194Z,18.06
2019-02-18T10:23:10.885Z,18.31
2019-02-18T10:25:40.536Z,17.61
2019-02-18T10:28:10.300Z,17.10
2019-02-18T10:30:39.873Z,17.22
2019-02-18T10:33:09.518Z,16.31
2019-02-18T10:35:39.065Z,15.53
2019-02-18T10:38:08.839Z,15.12
2019-02-18T10:40:38.425Z,14.18
2019-02-18T10:43:07.933Z,14.01
2019-02-18T10:45:37.417Z,12.95
2019-02-18T10:48:07.252Z,13.05
2019-02-18T10:50:36.818Z,12.58
2019-02-18T10:53:06.343Z,12.67
2019-02-18T10:55:35.993Z,11.98
2019-02-18T10:58:05.788Z,11.52
2019-02-18T11:00:35.285Z,11.54
2019-02-18T11:03:04.677Z,11.31
2019-02-18T11:05:34.409Z,11.90
2019-02-18T11:08:03.883Z,12.11
2019-02-18T11:10:33.500Z,11.07
2019-02-18T11:13:03.170Z,11.25
2019-02-18T11:15:32.989Z,10.87
2019-02-18T11:18:02.518Z,10.78
2019-02-18T11:20:32.391Z,9.94
2019-02-18T11:23:02.163Z,8.92
2019-02-18T11:25:31.613Z,9.51
2019-02-18T11:28:01.537Z,9.24
2019-02-18T11:30:31.378Z,8.82
2019-02-18T11:33:01.102Z,8.66
2019-02-18T11:35:30.687Z,8.49
2019-02-18T11:38:00.372Z,8.35
2019-02-18T11:40:32.123Z,8.14
2019-02-18T11:43:01.794Z,8.02
2019-02-18T11:45:31.163Z,7.49
2019-02-18T11:48:00.570Z,7.67
2019-02-18T11:50:30.130Z,8.08
2019-02-18T11:52:59.894Z,7.61
2019-02-18T11:55:29.873Z,7.92
2019-02-18T11:57:59.816Z,7.60
2019-02-18T12:00:29.319Z,7.61
2019-02-18T12:03:03.150Z,7.37
2019-02-18T12:05:30.721Z,7.18
2019-02-18T12:08:00.323Z,7.38
2019-02-18T12:10:29.732Z,7.43
2019-02-18T12:12:59.133Z,7.10
2019-02-18T12:15:28.748Z,6.71
2019-02-18T12:17:58.337Z,6.85
2019-02-18T12:20:27.782Z,6.47
2019-02-18T12:22:57.205Z,6.84
2019-02-18T12:25:27.245Z,7.08
2019-02-18T12:27:57.050Z,6.99
2019-02-18T12:30:26.749Z,7.05
2019-02-18T12:32:56.420Z,7.04
2019-02-18T12:35:31.015Z,7.49
2019-02-18T12:37:57.472Z,7.28
2019-02-18T12:40:27.290Z,7.84
2019-02-18T12:42:57.040Z,7.70
2019-02-18T12:45:26.681Z,6.90
2019-02-18T12:47:56.252Z,7.92
2019-02-18T12:50:26.114Z,8.46
2019-02-18T12:52:55.973Z,8.48
2019-02-18T12:55:25.746Z,8.52
2019-02-18T12:57:55.262Z,7.67
2019-02-18T13:00:24.828Z,8.34
2019-02-18T13:02:54.509Z,8.73
2019-02-18T13:05:24.187Z,8.81
2019-02-18T13:07:53.979Z,8.35
2019-02-18T13:10:23.835Z,8.95
2019-02-18T13:12:55.317Z,8.86
2019-02-18T13:15:24.722Z,8.89
2019-02-18T13:17:54.209Z,9.18
2019-02-18T13:20:23.919Z,8.45
2019-02-18T13:22:53.404Z,8.89
2019-02-18T13:25:22.965Z,10.43
2019-02-18T13:27:52.484Z,10.96
2019-02-18T13:30:22.019Z,12.39
2019-02-18T13:32:51.683Z,13.50
2019-02-18T13:35:21.610Z,14.40
2019-02-18T13:37:51.442Z,15.54
2019-02-18T13:40:21.160Z,16.57
2019-02-18T13:42:50.780Z,17.36
2019-02-18T13:45:20.413Z,18.77
2019-02-18T13:47:50.202Z,19.64
2019-02-18T13:50:19.896Z,20.25
2019-02-18T13:52:49.303Z,21.64
2019-02-18T13:55:19.058Z,21.99
2019-02-18T13:57:48.468Z,22.83
2019-02-18T14:00:20.048Z,23.23
2019-02-18T14:02:50.092Z,23.39
2019-02-18T14:05:20.082Z,23.92
2019-02-18T14:07:49.613Z,24.49
2019-02-18T14:10:20.221Z,25.07
2019-02-18T14:12:49.979Z,25.55
2019-02-18T14:15:19.850Z,26.25
2019-02-18T14:17:50.638Z,26.97
2019-02-18T14:20:20.520Z,27.29
2019-02-18T14:22:50.320Z,27.72
2019-02-18T14:25:20.298Z,27.35
2019-02-18T14:27:50.038Z,27.85
2019-02-18T14:30:19.754Z,28.18
2019-02-18T14:32:49.472Z,28.54
2019-02-18T14:35:19.116Z,28.73
2019-02-18T14:37:49.376Z,28.53
2019-02-18T14:40:20.356Z,28.88
2019-02-18T14:42:49.979Z,28.98
2019-02-18T14:45:19.979Z,29.46
2019-02-18T14:47:49.761Z,29.65
2019-02-18T14:50:19.814Z,29.30
2019-02-18T14:52:50.555Z,29.39
2019-02-18T14:55:20.452Z,29.54
2019-02-18T14:57:50.023Z,29.69
2019-02-18T15:00:21.526Z,30.36
2019-02-18T15:02:52.834Z,30.52
2019-02-18T15:05:22.711Z,30.50
2019-02-18T15:07:52.461Z,30.55
2019-02-18T15:10:22.149Z,30.17
2019-02-18T15:12:51.668Z,31.11
2019-02-18T15:15:21.167Z,30.50
2019-02-18T15:17:50.983Z,31.29
2019-02-18T15:20:21.263Z,31.08
2019-02-18T15:22:51.014Z,31.40
2019-02-18T15:25:20.709Z,31.74
2019-02-18T15:27:50.473Z,31.50
2019-02-18T15:30:20.048Z,32.75
2019-02-18T15:32:49.742Z,32.55
2019-02-18T15:35:19.762Z,32.88
2019-02-18T15:37:49.236Z,33.45
2019-02-18T15:40:18.928Z,33.77
2019-02-18T15:42:48.797Z,33.90
2019-02-18T15:45:18.492Z,34.53
2019-02-18T15:47:48.090Z,34.59
2019-02-18T15:50:18.045Z,35.54
2019-02-18T15:52:47.824Z,35.09
2019-02-18T15:55:17.521Z,36.48
2019-02-18T15:57:47.207Z,36.48
2019-02-18T16:00:19.210Z,36.25
2019-02-18T16:02:49.135Z,35.41
2019-02-18T16:05:18.600Z,36.04
2019-02-18T16:07:48.223Z,37.23
2019-02-18T16:10:18.062Z,37.60
2019-02-18T16:12:50.878Z,38.16
2019-02-18T16:15:19.025Z,38.44
2019-02-18T16:17:48.663Z,38.29
2019-02-18T16:20:18.426Z,38.59
2019-02-18T16:22:48.126Z,39.34
2019-02-18T16:25:19.292Z,39.92
2019-02-18T16:27:49.081Z,40.28
2019-02-18T16:30:19.014Z,40.79
2019-02-18T16:32:48.860Z,41.23
2019-02-18T16:35:18.275Z,41.64
2019-02-18T16:37:50.313Z,41.85
2019-02-18T16:40:19.791Z,42.78
2019-02-18T16:42:49.382Z,42.40
2019-02-18T16:45:18.943Z,42.64
2019-02-18T16:47:48.433Z,43.31
2019-02-18T16:50:17.999Z,43.40
2019-02-18T16:52:47.746Z,43.50
2019-02-18T16:55:17.542Z,43.95
2019-02-18T16:57:47.034Z,44.26
2019-02-18T17:00:28.692Z,44.30
2019-02-18T17:02:58.373Z,44.57
2019-02-18T17:05:27.919Z,45.04
2019-02-18T17:07:57.777Z,45.63
2019-02-18T17:10:27.736Z,45.70
2019-02-18T17:12:57.343Z,46.12
2019-02-18T17:15:27.613Z,46.13
2019-02-18T17:17:57.264Z,46.39
2019-02-18T17:20:31.366Z,46.65
2019-02-18T17:23:00.910Z,47.06
2019-02-18T17:25:30.765Z,47.70
2019-02-18T17:28:00.348Z,48.19
2019-02-18T17:30:30.587Z,47.79
2019-02-18T17:33:00.501Z,48.55
2019-02-18T17:35:30.442Z,48.67
2019-02-18T17:38:00.228Z,49.05
2019-02-18T17:40:29.851Z,49.06
2019-02-18T17:43:01.387Z,48.55
2019-02-18T17:45:32.815Z,48.27
2019-02-18T17:48:02.573Z,48.20
2019-02-18T17:50:33.205Z,48.68
2019-02-18T17:53:03.383Z,49.17
2019-02-18T17:55:33.394Z,48.15
2019-02-18T17:58:03.644Z,47.64
2019-02-18T18:00:34.997Z,48.14
2019-02-18T18:03:04.756Z,48.33
2019-02-18T18:05:34.623Z,48.86
2019-02-18T18:08:04.594Z,47.97
2019-02-18T18:10:34.171Z,47.52
2019-02-18T18:13:04.005Z,46.94
2019-02-18T18:15:33.866Z,48.25
2019-02-18T18:18:04.026Z,48.22
2019-02-18T18:20:35.880Z,48.89
2019-02-18T18:23:05.685Z,49.46
2019-02-18T18:25:35.431Z,50.28
2019-02-18T18:28:05.178Z,49.73
2019-02-18T18:30:34.895Z,50.36
2019-02-18T18:33:04.618Z,50.16
2019-02-18T18:35:34.712Z,50.46
2019-02-18T18:38:04.159Z,51.21
2019-02-18T18:40:34.133Z,50.91
2019-02-18T18:43:03.815Z,50.67
2019-02-18T18:45:33.241Z,51.68
2019-02-18T18:48:03.062Z,51.73
2019-02-18T18:50:32.831Z,51.92
2019-02-18T18:53:02.520Z,52.38
2019-02-18T18:55:31.910Z,52.34
2019-02-18T18:58:01.591Z,51.89
2019-02-18T19:00:31.438Z,52.51
2019-02-18T19:03:01.205Z,52.90
2019-02-18T19:05:30.930Z,52.55
2019-02-18T19:08:00.562Z,52.67
2019-02-18T19:10:30.395Z,52.41
2019-02-18T19:13:00.085Z,52.31
2019-02-18T19:15:30.649Z,51.61
2019-02-18T19:18:00.375Z,51.03
2019-02-18T19:20:30.052Z,50.90
2019-02-18T19:22:59.472Z,51.48
2019-02-18T19:25:29.698Z,51.28
2019-02-18T19:27:59.539Z,51.82
2019-02-18T19:30:29.982Z,51.35
2019-02-18T19:32:59.701Z,51.80
2019-02-18T19:35:37.160Z,51.33
2019-02-18T19:38:07.065Z,50.56
2019-02-18T19:40:36.748Z,50.70
2019-02-18T19:43:06.673Z,50.37
2019-02-18T19:45:36.459Z,50.50
2019-02-18T19:48:06.146Z,50.96
2019-02-18T19:50:36.288Z,51.68
2019-02-18T19:53:06.030Z,51.90
2019-02-18T19:55:35.829Z,52.20
2019-02-18T19:58:05.251Z,52.75
2019-02-18T20:00:35.002Z,52.63
2019-02-18T20:03:04.526Z,53.47
2019-02-18T20:05:33.909Z,53.16
2019-02-18T20:08:03.773Z,53.20
2019-02-18T20:10:33.761Z,53.51
2019-02-18T20:13:04.133Z,53.88
2019-02-18T20:15:33.891Z,53.73
2019-02-18T20:18:03.531Z,53.99
2019-02-18T20:20:33.308Z,54.55
2019-02-18T20:23:03.091Z,54.74
2019-02-18T20:25:32.904Z,54.87
2019-02-18T20:28:02.312Z,54.82
2019-02-18T20:30:32.851Z,54.83
2019-02-18T20:33:02.406Z,55.39
2019-02-18T20:35:32.037Z,55.62
2019-02-18T20:38:01.765Z,56.09
2019-02-18T20:40:31.561Z,55.69
2019-02-18T20:43:01.265Z,55.66
2019-02-18T20:45:31.292Z,55.62
2019-02-18T20:48:01.019Z,55.67
2019-02-18T20:50:30.705Z,55.38
2019-02-18T20:53:00.782Z,55.15
2019-02-18T20:55:30.286Z,55.10
2019-02-18T20:58:00.047Z,55.61
2019-02-18T21:00:29.647Z,55.64
2019-02-18T21:02:59.238Z,55.12
2019-02-18T21:05:28.735Z,55.71
2019-02-18T21:07:58.399Z,56.37
2019-02-18T21:10:27.832Z,55.88
2019-02-18T21:12:57.442Z,56.23
2019-02-18T21:15:27.235Z,56.36
2019-02-18T21:17:57.004Z,56.47
2019-02-18T21:20:26.574Z,56.51
2019-02-18T21:22:56.317Z,56.56
2019-02-18T21:25:25.808Z,56.71
2019-02-18T21:27:55.521Z,56.52
2019-02-18T21:30:24.913Z,56.37
2019-02-18T21:32:54.548Z,55.98
2019-02-18T21:35:24.400Z,56.73
2019-02-18T21:37:54.288Z,56.50
2019-02-18T21:40:23.734Z,56.52
2019-02-18T21:42:53.567Z,56.43
2019-02-18T21:45:23.371Z,56.53
2019-02-18T21:47:52.849Z,56.81
2019-02-18T21:50:22.686Z,56.83
2019-02-18T21:52:52.459Z,57.18
2019-02-18T21:55:22.324Z,57.17
2019-02-18T21:57:51.988Z,57.21
2019-02-18T22:00:22.295Z,57.29
2019-02-18T22:02:51.905Z,57.74
2019-02-18T22:05:21.636Z,58.08
2019-02-18T22:07:51.352Z,58.15
2019-02-18T22:10:21.154Z,57.79
2019-02-18T22:12:51.009Z,57.17
2019-02-18T22:15:20.693Z,57.11
2019-02-18T22:17:50.416Z,57.32
2019-02-18T22:20:20.872Z,57.20
2019-02-18T22:22:50.745Z,57.20
2019-02-18T22:25:20.356Z,57.04
2019-02-18T22:27:50.038Z,57.08
2019-02-18T22:30:19.651Z,57.43
2019-02-18T22:32:49.114Z,57.35
2019-02-18T22:35:18.816Z,57.37
2019-02-18T22:37:48.602Z,57.49
2019-02-18T22:40:17.986Z,57.49
2019-02-18T22:42:47.574Z,58.00
2019-02-18T22:45:17.335Z,58.64
2019-02-18T22:47:46.985Z,58.47
2019-02-18T22:50:16.734Z,58.76
2019-02-18T22:52:46.498Z,58.70
2019-02-18T22:55:15.992Z,59.22
2019-02-18T22:57:45.747Z,58.82
2019-02-18T23:00:43.625Z,58.68
2019-02-18T23:03:13.230Z,58.81
2019-02-18T23:05:43.102Z,58.91
2019-02-18T23:08:12.975Z,59.37
2019-02-18T23:10:42.669Z,59.33
2019-02-18T23:13:12.291Z,59.10
2019-02-18T23:15:42.201Z,58.97
2019-02-18T23:18:12.321Z,58.95
2019-02-18T23:20:41.794Z,59.47
2019-02-18T23:23:11.562Z,59.66
2019-02-18T23:25:40.936Z,59.41
2019-02-18T23:28:10.510Z,59.40
2019-02-18T23:30:40.560Z,58.92
2019-02-18T23:33:10.027Z,58.59
2019-02-18T23:35:39.855Z,58.55
2019-02-18T23:38:09.264Z,58.72
2019-02-18T23:40:38.942Z,58.89
2019-02-18T23:43:08.690Z,58.86
2019-02-18T23:45:38.269Z,58.88
2019-02-18T23:48:08.009Z,59.24
2019-02-18T23:50:37.764Z,59.49
2019-02-18T23:53:07.255Z,59.13
2019-02-18T23:55:36.789Z,59.36
2019-02-18T23:58:06.643Z,59.43
